Time;durP1;ratioP1;P1;durP2;ratioP2;P2;SDS_P1;SDS_P2;PMS_P1;PMS_P2;Temp;Humidity;BMP_temperature;BMP_pressure;BME280_temperature;BME280_humidity;BME280_pressure;Samples;Min_cycle;Max_cycle;Signal;HPM_P1;HPM_P2
2021/08/18 00:00:43;;;;;;;13.90;7.62;;;;;;;;;;4463507;32;20232;-57
2021/08/18 00:03:09;;;;;;;9.93;5.62;;;;;;;;;;4462548;32;20217;-57
2021/08/18 00:05:35;;;;;;;9.38;6.03;;;;;;;;;;4463721;32;20355;-57
2021/08/18 00:08:01;;;;;;;8.63;5.47;;;;;;;;;;4463530;32;20353;-56
2021/08/18 00:10:29;;;;;;;9.90;5.87;;;;;;;;;;4463682;32;20192;-57
2021/08/18 00:12:55;;;;;;;9.02;5.60;;;;;;;;;;4463476;32;20279;-57
2021/08/18 00:15:20;;;;;;;9.63;6.85;;;;;;;;;;4453793;32;20289;-57
2021/08/18 00:17:46;;;;;;;8.85;6.20;;;;;;;;;;4447877;32;20350;-55
2021/08/18 00:20:13;;;;;;;9.80;6.40;;;;;;;;;;4447591;32;20641;-55
2021/08/18 00:22:39;;;;;;;8.32;5.82;;;;;;;;;;4448015;32;20217;-55
2021/08/18 00:25:05;;;;;;;10.00;6.03;;;;;;;;;;4447998;32;20289;-55
2021/08/18 00:27:30;;;;;;;9.82;6.22;;;;;;;;;;4447952;32;20295;-57
2021/08/18 00:29:56;;;;;;;9.70;5.97;;;;;;;;;;4447446;32;20621;-56
2021/08/18 00:32:21;;;;;;;7.05;4.87;;;;;;;;;;4455361;32;20287;-56
2021/08/18 00:34:47;;;;;;;9.43;5.00;;;;;;;;;;4463467;32;20611;-55
2021/08/18 00:37:12;;;;;;;10.38;6.28;;;;;;;;;;4463087;32;20282;-55
2021/08/18 00:39:38;;;;;;;9.07;4.82;;;;;;;;;;4463391;32;20293;-56
2021/08/18 00:42:04;;;;;;;8.15;5.30;;;;;;;;;;4463277;32;20309;-56
2021/08/18 00:44:32;;;;;;;7.12;4.82;;;;;;;;;;4463276;32;20303;-55
2021/08/18 00:46:58;;;;;;;10.80;5.95;;;;;;;;;;4462956;32;20273;-56
2021/08/18 00:49:25;;;;;;;8.20;5.22;;;;;;;;;;4463075;32;20220;-56
2021/08/18 00:51:55;;;;;;;6.70;5.10;;;;;;;;;;4466048;32;20619;-57
2021/08/18 00:54:22;;;;;;;8.73;5.15;;;;;;;;;;4466179;32;20662;-56
2021/08/18 00:56:48;;;;;;;8.93;5.55;;;;;;;;;;4466165;32;20748;-57
2021/08/18 00:59:14;;;;;;;7.85;5.53;;;;;;;;;;4466071;32;20312;-57
2021/08/18 01:01:40;;;;;;;7.57;4.70;;;;;;;;;;4466132;32;20299;-58
2021/08/18 01:04:06;;;;;;;12.05;5.22;;;;;;;;;;4465917;32;20220;-56
2021/08/18 01:06:40;;;;;;;15.00;5.62;;;;;;;;;;4466220;32;20279;-57
2021/08/18 01:09:21;;;;;;;10.13;5.05;;;;;;;;;;4466215;32;20595;-55
2021/08/18 01:11:51;;;;;;;8.23;4.85;;;;;;;;;;4465882;32;20691;-56
2021/08/18 01:14:18;;;;;;;6.47;4.05;;;;;;;;;;4465511;32;20346;-56
2021/08/18 01:16:46;;;;;;;7.45;3.80;;;;;;;;;;4465997;32;20265;-55
2021/08/18 01:19:13;;;;;;;6.95;4.05;;;;;;;;;;4456450;32;20336;-55
2021/08/18 01:21:39;;;;;;;5.47;3.42;;;;;;;;;;4450418;32;20279;-56
2021/08/18 01:24:07;;;;;;;4.87;4.35;;;;;;;;;;4450310;32;21055;-57
2021/08/18 01:26:32;;;;;;;5.20;4.53;;;;;;;;;;4450287;32;20242;-56
2021/08/18 01:28:59;;;;;;;5.50;4.85;;;;;;;;;;4449970;32;20616;-56
2021/08/18 01:31:24;;;;;;;7.82;4.55;;;;;;;;;;4450263;32;20746;-56
2021/08/18 01:33:50;;;;;;;5.60;4.62;;;;;;;;;;4450016;32;20248;-55
2021/08/18 01:36:15;;;;;;;5.70;4.10;;;;;;;;;;4450170;32;20275;-55
2021/08/18 01:38:41;;;;;;;7.18;4.35;;;;;;;;;;4435941;32;20672;-56
2021/08/18 01:41:08;;;;;;;10.13;4.18;;;;;;;;;;4435804;32;20380;-57
2021/08/18 01:43:34;;;;;;;7.72;4.03;;;;;;;;;;4435845;32;20236;-56
2021/08/18 01:46:00;;;;;;;12.18;4.18;;;;;;;;;;4449612;32;20342;-57
2021/08/18 01:48:29;;;;;;;5.00;3.62;;;;;;;;;;4449632;32;20266;-55
2021/08/18 01:50:57;;;;;;;5.65;3.80;;;;;;;;;;4449735;32;20348;-55
2021/08/18 01:53:24;;;;;;;12.48;4.15;;;;;;;;;;4449989;32;20216;-55
2021/08/18 01:55:50;;;;;;;9.80;4.32;;;;;;;;;;4449954;32;20304;-56
2021/08/18 01:58:16;;;;;;;4.93;4.03;;;;;;;;;;4449906;32;20652;-55
2021/08/18 02:00:42;;;;;;;9.02;3.97;;;;;;;;;;4449815;32;20326;-57
2021/08/18 02:03:08;;;;;;;5.97;3.85;;;;;;;;;;4449001;32;20307;-56
2021/08/18 02:05:33;;;;;;;5.72;3.17;;;;;;;;;;4449786;32;20334;-57
2021/08/18 02:07:59;;;;;;;6.93;4.35;;;;;;;;;;4449188;32;20306;-55
2021/08/18 02:10:25;;;;;;;5.68;4.07;;;;;;;;;;4449708;32;20291;-56
2021/08/18 02:12:51;;;;;;;6.97;4.53;;;;;;;;;;4449260;32;20585;-55
2021/08/18 02:15:20;;;;;;;12.00;5.12;;;;;;;;;;4448676;32;20336;-55
2021/08/18 02:17:45;;;;;;;7.15;4.93;;;;;;;;;;4449597;32;20321;-56
2021/08/18 02:20:18;;;;;;;10.07;6.45;;;;;;;;;;4449234;32;20673;-56
2021/08/18 02:22:43;;;;;;;10.02;6.20;;;;;;;;;;4449762;32;20220;-56
2021/08/18 02:25:09;;;;;;;20.05;6.70;;;;;;;;;;4449225;32;20277;-56
2021/08/18 02:27:35;;;;;;;9.25;6.30;;;;;;;;;;4449508;32;20346;-57
2021/08/18 02:30:01;;;;;;;8.77;6.25;;;;;;;;;;4449059;32;20229;-56
2021/08/18 02:32:26;;;;;;;14.35;7.15;;;;;;;;;;4449217;32;20700;-57
2021/08/18 02:34:52;;;;;;;13.45;7.03;;;;;;;;;;4449135;32;20221;-56
2021/08/18 02:37:18;;;;;;;11.77;6.00;;;;;;;;;;4449303;32;20314;-57
2021/08/18 02:39:43;;;;;;;8.27;5.87;;;;;;;;;;4449149;32;20286;-56
2021/08/18 02:42:09;;;;;;;16.15;6.25;;;;;;;;;;4449115;32;20307;-55
2021/08/18 02:44:35;;;;;;;13.80;7.05;;;;;;;;;;4449202;32;20644;-56
2021/08/18 02:47:00;;;;;;;11.90;8.00;;;;;;;;;;4449066;32;20339;-57
2021/08/18 02:49:26;;;;;;;10.15;6.72;;;;;;;;;;4448952;32;20251;-56
2021/08/18 02:51:51;;;;;;;11.35;5.65;;;;;;;;;;4449056;32;20313;-56
2021/08/18 02:54:17;;;;;;;6.97;5.57;;;;;;;;;;4449338;32;20305;-56
2021/08/18 02:56:42;;;;;;;9.98;5.57;;;;;;;;;;4448937;32;20306;-57
2021/08/18 02:59:08;;;;;;;10.68;5.82;;;;;;;;;;4448872;32;20632;-55
2021/08/18 03:01:33;;;;;;;6.35;4.82;;;;;;;;;;4448905;32;20280;-56
2021/08/18 03:03:59;;;;;;;8.35;5.03;;;;;;;;;;4448593;32;20684;-56
2021/08/18 03:06:24;;;;;;;7.10;4.50;;;;;;;;;;4449116;32;20707;-56
2021/08/18 03:08:50;;;;;;;6.68;5.43;;;;;;;;;;4448818;32;20461;-56
2021/08/18 03:11:15;;;;;;;9.52;5.97;;;;;;;;;;4448470;32;20279;-55
2021/08/18 03:13:41;;;;;;;10.65;6.18;;;;;;;;;;4448415;32;20251;-56
2021/08/18 03:16:06;;;;;;;11.35;6.57;;;;;;;;;;4447903;32;20359;-55
2021/08/18 03:18:32;;;;;;;8.10;5.75;;;;;;;;;;4448679;32;20228;-55
2021/08/18 03:20:58;;;;;;;10.20;6.00;;;;;;;;;;4454791;32;20300;-56
2021/08/18 03:23:24;;;;;;;12.68;6.82;;;;;;;;;;4464308;32;20281;-56
2021/08/18 03:25:50;;;;;;;11.88;7.05;;;;;;;;;;4462975;32;20311;-56
2021/08/18 03:28:15;;;;;;;15.80;7.05;;;;;;;;;;4464383;32;20239;-56
2021/08/18 03:30:41;;;;;;;5.57;4.82;;;;;;;;;;4464282;32;20291;-56
2021/08/18 03:33:07;;;;;;;7.68;5.30;;;;;;;;;;4463881;32;20236;-55
2021/08/18 03:35:32;;;;;;;8.45;4.62;;;;;;;;;;4464542;32;20275;-56
2021/08/18 03:37:58;;;;;;;8.13;5.12;;;;;;;;;;4463704;32;20286;-55
2021/08/18 03:40:24;;;;;;;7.12;4.62;;;;;;;;;;4463919;32;20742;-56
2021/08/18 03:42:49;;;;;;;7.15;5.07;;;;;;;;;;4463730;32;20270;-56
2021/08/18 03:45:15;;;;;;;7.22;4.37;;;;;;;;;;4463780;32;20313;-55
2021/08/18 03:47:40;;;;;;;5.00;4.32;;;;;;;;;;4464605;32;20291;-58
2021/08/18 03:50:07;;;;;;;6.82;4.28;;;;;;;;;;4463596;32;20220;-55
2021/08/18 03:52:32;;;;;;;7.15;4.37;;;;;;;;;;4463789;32;20334;-55
2021/08/18 03:54:58;;;;;;;10.07;5.00;;;;;;;;;;4463422;32;20224;-55
2021/08/18 03:57:24;;;;;;;11.98;7.65;;;;;;;;;;4462529;32;20299;-56
2021/08/18 03:59:49;;;;;;;8.57;6.07;;;;;;;;;;4462411;32;20262;-56
2021/08/18 04:02:15;;;;;;;7.37;5.28;;;;;;;;;;4463945;32;20701;-56
2021/08/18 04:04:40;;;;;;;10.00;5.75;;;;;;;;;;4463533;32;20224;-56
2021/08/18 04:07:06;;;;;;;7.93;5.25;;;;;;;;;;4459395;32;20272;-56
2021/08/18 04:09:31;;;;;;;13.13;4.70;;;;;;;;;;4448120;32;20216;-56
2021/08/18 04:11:57;;;;;;;13.10;5.43;;;;;;;;;;4448215;32;20275;-56
2021/08/18 04:14:22;;;;;;;7.82;5.20;;;;;;;;;;4447504;32;20232;-57
2021/08/18 04:16:48;;;;;;;9.57;5.43;;;;;;;;;;4448157;32;20653;-56
2021/08/18 04:19:13;;;;;;;7.37;5.40;;;;;;;;;;4448041;32;20253;-56
2021/08/18 04:21:38;;;;;;;7.60;5.87;;;;;;;;;;4448166;32;20320;-56
2021/08/18 04:24:04;;;;;;;8.50;5.45;;;;;;;;;;4447795;32;20307;-56
2021/08/18 04:26:30;;;;;;;6.45;4.62;;;;;;;;;;4452286;32;20295;-57
2021/08/18 04:28:56;;;;;;;7.55;5.40;;;;;;;;;;4452757;32;20228;-57
2021/08/18 04:31:22;;;;;;;16.27;5.05;;;;;;;;;;4452989;32;20204;-57
2021/08/18 04:33:47;;;;;;;6.20;5.60;;;;;;;;;;4452852;32;20262;-56
2021/08/18 04:36:13;;;;;;;12.13;7.10;;;;;;;;;;4452963;32;20288;-56
2021/08/18 04:38:38;;;;;;;5.80;4.95;;;;;;;;;;4453261;32;20255;-57
2021/08/18 04:41:04;;;;;;;8.50;5.55;;;;;;;;;;4452938;32;20505;-57
2021/08/18 04:43:29;;;;;;;7.90;5.47;;;;;;;;;;4452865;32;20274;-57
2021/08/18 04:45:55;;;;;;;10.18;5.37;;;;;;;;;;4452021;32;20319;-57
2021/08/18 04:48:20;;;;;;;6.05;4.35;;;;;;;;;;4452840;32;20413;-56
2021/08/18 04:50:46;;;;;;;7.78;5.85;;;;;;;;;;4453167;32;20255;-56
2021/08/18 04:53:12;;;;;;;6.78;4.90;;;;;;;;;;4452912;32;20313;-56
2021/08/18 04:55:39;;;;;;;7.22;5.10;;;;;;;;;;4452991;32;20301;-57
2021/08/18 04:58:05;;;;;;;7.90;5.05;;;;;;;;;;4452466;32;20304;-57
2021/08/18 05:00:30;;;;;;;8.60;5.85;;;;;;;;;;4452903;32;20330;-57
2021/08/18 05:02:56;;;;;;;8.50;5.07;;;;;;;;;;4452778;32;20366;-56
2021/08/18 05:05:21;;;;;;;11.63;4.32;;;;;;;;;;4452977;32;20291;-57
2021/08/18 05:07:47;;;;;;;5.50;3.80;;;;;;;;;;4453010;32;20275;-57
2021/08/18 05:10:12;;;;;;;6.05;4.45;;;;;;;;;;4452952;32;20231;-56
2021/08/18 05:12:38;;;;;;;9.32;4.87;;;;;;;;;;4452713;32;20848;-57
2021/08/18 05:15:05;;;;;;;7.90;6.28;;;;;;;;;;4459472;32;20228;-57
2021/08/18 05:17:30;;;;;;;7.28;4.97;;;;;;;;;;4468412;32;20635;-56
2021/08/18 05:19:56;;;;;;;6.55;4.80;;;;;;;;;;4468469;32;20247;-56
2021/08/18 05:22:21;;;;;;;10.32;5.50;;;;;;;;;;4468384;32;20761;-57
2021/08/18 05:24:47;;;;;;;17.15;6.45;;;;;;;;;;4468085;32;20719;-56
2021/08/18 05:27:13;;;;;;;9.05;5.12;;;;;;;;;;4468067;32;20650;-57
2021/08/18 05:29:38;;;;;;;8.45;6.45;;;;;;;;;;4468223;32;20671;-57
2021/08/18 05:32:04;;;;;;;8.85;6.50;;;;;;;;;;4468206;32;20839;-56
2021/08/18 05:34:30;;;;;;;6.22;5.62;;;;;;;;;;4468409;32;20224;-56
2021/08/18 05:36:55;;;;;;;13.45;4.75;;;;;;;;;;4465764;32;20287;-56
2021/08/18 05:39:20;;;;;;;10.63;4.40;;;;;;;;;;4464536;32;20248;-56
2021/08/18 05:41:46;;;;;;;7.85;4.65;;;;;;;;;;4465594;32;20669;-56
2021/08/18 05:44:11;;;;;;;7.40;5.22;;;;;;;;;;4465773;32;20275;-57
2021/08/18 05:46:37;;;;;;;9.07;5.05;;;;;;;;;;4465730;32;20267;-57
2021/08/18 05:49:02;;;;;;;7.53;4.55;;;;;;;;;;4465273;32;20252;-56
2021/08/18 05:51:28;;;;;;;5.57;4.95;;;;;;;;;;4465645;32;20311;-57
2021/08/18 05:53:53;;;;;;;7.15;4.25;;;;;;;;;;4465359;32;20224;-56
2021/08/18 05:56:19;;;;;;;11.05;5.15;;;;;;;;;;4465445;32;20402;-56
2021/08/18 05:58:44;;;;;;;10.20;4.25;;;;;;;;;;4464432;32;20290;-56
2021/08/18 06:01:10;;;;;;;7.70;4.97;;;;;;;;;;4450636;32;20291;-56
2021/08/18 06:03:36;;;;;;;12.75;5.95;;;;;;;;;;4449381;32;20320;-56
2021/08/18 06:06:02;;;;;;;12.35;6.00;;;;;;;;;;4449340;32;20333;-56
2021/08/18 06:08:27;;;;;;;14.05;6.55;;;;;;;;;;4449312;32;20243;-56
2021/08/18 06:10:53;;;;;;;10.00;5.37;;;;;;;;;;4449304;32;20417;-56
2021/08/18 06:13:18;;;;;;;10.07;5.82;;;;;;;;;;4449089;32;20672;-56
2021/08/18 06:15:44;;;;;;;9.75;6.00;;;;;;;;;;4447381;32;20497;-57
2021/08/18 06:18:09;;;;;;;7.03;5.20;;;;;;;;;;4447686;32;20610;-57
2021/08/18 06:20:36;;;;;;;13.25;6.50;;;;;;;;;;4452917;32;20343;-56
2021/08/18 06:23:02;;;;;;;9.55;5.18;;;;;;;;;;4464834;32;20335;-56
2021/08/18 06:25:28;;;;;;;10.55;6.20;;;;;;;;;;4453647;32;20252;-56
2021/08/18 06:27:54;;;;;;;10.70;6.50;;;;;;;;;;4449382;32;20309;-56
2021/08/18 06:30:20;;;;;;;7.78;5.47;;;;;;;;;;4435181;32;20319;-57
2021/08/18 06:32:45;;;;;;;13.00;5.75;;;;;;;;;;4445036;32;20825;-56
2021/08/18 06:35:11;;;;;;;12.65;5.90;;;;;;;;;;4464809;32;20200;-55
2021/08/18 06:37:36;;;;;;;10.20;5.93;;;;;;;;;;4464541;32;20294;-57
2021/08/18 06:40:03;;;;;;;8.70;6.05;;;;;;;;;;4464524;32;20224;-56
2021/08/18 06:42:30;;;;;;;7.72;5.15;;;;;;;;;;4464562;32;20273;-56
2021/08/18 06:44:55;;;;;;;8.10;5.55;;;;;;;;;;4450305;32;20327;-57
2021/08/18 06:47:21;;;;;;;14.70;6.20;;;;;;;;;;4450139;32;20686;-57
2021/08/18 06:49:46;;;;;;;9.60;6.12;;;;;;;;;;4463436;32;20247;-57
2021/08/18 06:52:12;;;;;;;10.73;5.37;;;;;;;;;;4464524;32;20297;-56
2021/08/18 06:54:37;;;;;;;9.00;6.28;;;;;;;;;;4464035;32;20333;-58
2021/08/18 06:57:03;;;;;;;11.00;6.20;;;;;;;;;;4450019;32;20320;-57
2021/08/18 06:59:29;;;;;;;11.30;6.07;;;;;;;;;;4464014;32;20216;-56
2021/08/18 07:01:55;;;;;;;8.43;5.87;;;;;;;;;;4463970;32;20620;-58
2021/08/18 07:04:20;;;;;;;8.15;6.22;;;;;;;;;;4464108;32;20232;-56
2021/08/18 07:06:46;;;;;;;10.13;6.12;;;;;;;;;;4464334;32;20266;-57
2021/08/18 07:09:11;;;;;;;12.27;6.20;;;;;;;;;;4464091;32;20728;-56
2021/08/18 07:11:37;;;;;;;8.90;5.75;;;;;;;;;;4463870;32;20288;-57
2021/08/18 07:14:03;;;;;;;13.35;6.28;;;;;;;;;;4464069;32;20282;-57
2021/08/18 07:16:30;;;;;;;6.75;5.40;;;;;;;;;;4450008;32;20219;-57
2021/08/18 07:18:56;;;;;;;11.48;6.60;;;;;;;;;;4464214;32;20323;-56
2021/08/18 07:21:23;;;;;;;18.52;7.15;;;;;;;;;;4463725;32;20220;-56
2021/08/18 07:23:49;;;;;;;8.65;5.93;;;;;;;;;;4461962;32;20656;-56
2021/08/18 07:26:15;;;;;;;7.22;5.75;;;;;;;;;;4448774;32;20271;-57
2021/08/18 07:28:42;;;;;;;8.75;5.68;;;;;;;;;;4448139;32;20556;-56
2021/08/18 07:31:08;;;;;;;10.30;5.95;;;;;;;;;;4448321;32;20458;-56
2021/08/18 07:33:33;;;;;;;9.05;6.43;;;;;;;;;;4463368;32;20394;-56
2021/08/18 07:35:59;;;;;;;8.57;5.47;;;;;;;;;;4464090;32;20307;-56
2021/08/18 07:38:24;;;;;;;7.55;5.82;;;;;;;;;;4463886;32;20239;-55
2021/08/18 07:40:50;;;;;;;6.85;4.85;;;;;;;;;;4463842;32;20722;-55
2021/08/18 07:43:15;;;;;;;9.65;5.40;;;;;;;;;;4463366;32;20221;-55
2021/08/18 07:45:41;;;;;;;7.62;5.53;;;;;;;;;;4463489;32;20291;-57
2021/08/18 07:48:06;;;;;;;13.02;5.70;;;;;;;;;;4449423;32;20240;-55
2021/08/18 07:50:32;;;;;;;10.23;5.07;;;;;;;;;;4463705;32;20279;-56
2021/08/18 07:52:57;;;;;;;6.18;5.57;;;;;;;;;;4463821;32;20593;-56
2021/08/18 07:55:23;;;;;;;8.32;5.60;;;;;;;;;;4463263;32;20283;-57
2021/08/18 07:57:48;;;;;;;7.32;5.57;;;;;;;;;;4463112;32;20271;-57
2021/08/18 08:00:14;;;;;;;11.30;5.95;;;;;;;;;;4462956;32;20259;-57
2021/08/18 08:02:44;;;;;;;6.80;5.20;;;;;;;;;;4463630;32;20344;-57
2021/08/18 08:05:10;;;;;;;7.90;6.03;;;;;;;;;;4463336;32;20553;-56
2021/08/18 08:07:36;;;;;;;10.70;6.28;;;;;;;;;;4463590;32;20717;-57
2021/08/18 08:10:02;;;;;;;9.50;6.87;;;;;;;;;;4463354;32;20212;-56
2021/08/18 08:12:28;;;;;;;10.32;5.68;;;;;;;;;;4448872;32;20370;-57
2021/08/18 08:14:53;;;;;;;13.62;6.60;;;;;;;;;;4463614;32;20224;-56
2021/08/18 08:17:19;;;;;;;8.00;5.20;;;;;;;;;;4463247;32;20319;-56
2021/08/18 08:19:44;;;;;;;8.60;5.72;;;;;;;;;;4463244;32;20727;-57
2021/08/18 08:22:10;;;;;;;6.80;4.87;;;;;;;;;;4447691;32;20631;-57
2021/08/18 08:24:35;;;;;;;6.85;5.87;;;;;;;;;;4453973;32;20313;-57
2021/08/18 08:27:00;;;;;;;9.80;5.60;;;;;;;;;;4461991;32;20311;-57
2021/08/18 08:29:26;;;;;;;11.18;6.12;;;;;;;;;;4463227;32;20224;-57
2021/08/18 08:31:51;;;;;;;8.70;5.05;;;;;;;;;;4463089;32;20331;-57
2021/08/18 08:34:17;;;;;;;9.02;5.22;;;;;;;;;;4463294;32;20341;-57
2021/08/18 08:36:43;;;;;;;7.43;5.28;;;;;;;;;;4463137;32;20291;-57
2021/08/18 08:39:09;;;;;;;6.50;5.28;;;;;;;;;;4463155;32;20243;-57
2021/08/18 08:41:35;;;;;;;7.37;4.97;;;;;;;;;;4463141;32;20310;-57
2021/08/18 08:44:01;;;;;;;7.78;4.93;;;;;;;;;;4462926;32;20247;-57
2021/08/18 08:46:27;;;;;;;12.60;5.70;;;;;;;;;;4463056;32;20313;-57
2021/08/18 08:48:54;;;;;;;12.68;5.72;;;;;;;;;;4463005;32;20314;-56
2021/08/18 08:51:20;;;;;;;8.02;5.00;;;;;;;;;;4463141;32;20204;-57
2021/08/18 08:53:45;;;;;;;5.95;4.85;;;;;;;;;;4463225;32;20687;-56
2021/08/18 08:56:11;;;;;;;6.85;5.70;;;;;;;;;;4462923;32;20686;-57
2021/08/18 08:58:36;;;;;;;9.35;5.82;;;;;;;;;;4462744;32;21154;-56
2021/08/18 09:01:02;;;;;;;10.63;5.53;;;;;;;;;;4463108;32;20745;-56
2021/08/18 09:03:28;;;;;;;12.05;5.37;;;;;;;;;;4462362;32;20247;-56
2021/08/18 09:06:02;;;;;;;7.07;5.55;;;;;;;;;;4463173;32;20320;-58
2021/08/18 09:08:28;;;;;;;10.07;5.03;;;;;;;;;;4462912;32;20629;-57
2021/08/18 09:11:10;;;;;;;8.88;5.55;;;;;;;;;;4463093;32;20299;-57
2021/08/18 09:13:52;;;;;;;9.98;5.35;;;;;;;;;;4465814;32;20353;-56
2021/08/18 09:16:20;;;;;;;7.05;5.60;;;;;;;;;;4465800;32;20564;-57
2021/08/18 09:18:52;;;;;;;6.87;5.55;;;;;;;;;;4465746;32;20616;-56
2021/08/18 09:21:37;;;;;;;10.15;4.78;;;;;;;;;;4465838;32;20652;-56
2021/08/18 09:24:12;;;;;;;9.95;6.10;;;;;;;;;;4465177;32;20636;-57
2021/08/18 09:26:42;;;;;;;8.70;5.03;;;;;;;;;;4465534;32;20588;-57
2021/08/18 09:29:09;;;;;;;7.82;4.87;;;;;;;;;;4465608;32;20315;-56
2021/08/18 09:31:35;;;;;;;7.12;5.80;;;;;;;;;;4465668;32;20232;-57
2021/08/18 09:34:00;;;;;;;9.18;5.93;;;;;;;;;;4465625;32;20246;-56
2021/08/18 09:36:29;;;;;;;7.53;5.25;;;;;;;;;;4465005;32;20271;-56
2021/08/18 09:39:24;;;;;;;7.32;5.62;;;;;;;;;;4465723;32;20419;-56
2021/08/18 09:41:50;;;;;;;7.68;5.78;;;;;;;;;;4465227;32;20220;-56
2021/08/18 09:44:16;;;;;;;10.05;5.57;;;;;;;;;;4465374;32;20303;-56
2021/08/18 09:46:41;;;;;;;9.15;5.22;;;;;;;;;;4465314;32;20378;-62
2021/08/18 09:49:12;;;;;;;11.50;5.82;;;;;;;;;;4465361;32;20221;-56
2021/08/18 09:51:39;;;;;;;7.30;5.28;;;;;;;;;;4465557;32;20322;-57
2021/08/18 09:54:17;;;;;;;9.43;7.07;;;;;;;;;;4465344;32;20223;-57
2021/08/18 09:56:45;;;;;;;9.07;5.95;;;;;;;;;;4465364;32;20668;-57
2021/08/18 09:59:11;;;;;;;9.77;6.47;;;;;;;;;;4465350;32;20632;-56
2021/08/18 10:01:39;;;;;;;8.50;5.78;;;;;;;;;;4465286;32;20302;-57
2021/08/18 10:04:05;;;;;;;8.38;5.80;;;;;;;;;;4465369;32;20336;-56
2021/08/18 10:06:31;;;;;;;6.95;5.12;;;;;;;;;;4465085;32;20299;-57
2021/08/18 10:08:57;;;;;;;9.32;4.97;;;;;;;;;;4465131;32;20278;-57
2021/08/18 10:11:26;;;;;;;7.65;5.57;;;;;;;;;;4463729;32;20326;-56
2021/08/18 10:13:53;;;;;;;8.23;6.25;;;;;;;;;;4455067;32;20315;-57
2021/08/18 10:16:20;;;;;;;7.62;5.57;;;;;;;;;;4449884;32;20280;-57
2021/08/18 10:18:50;;;;;;;9.43;5.75;;;;;;;;;;4449445;32;20359;-56
2021/08/18 10:21:29;;;;;;;7.43;5.00;;;;;;;;;;4449525;32;20341;-56
2021/08/18 10:23:59;;;;;;;10.82;6.18;;;;;;;;;;4448725;32;20348;-57
2021/08/18 10:26:34;;;;;;;8.02;6.03;;;;;;;;;;4449611;32;20352;-57
2021/08/18 10:29:05;;;;;;;8.40;5.80;;;;;;;;;;4449497;32;20219;-57
2021/08/18 10:31:46;;;;;;;6.87;5.40;;;;;;;;;;4451658;32;20212;-57
2021/08/18 10:34:45;;;;;;;8.85;5.75;;;;;;;;;;4465015;32;20289;-57
2021/08/18 10:37:15;;;;;;;8.25;5.55;;;;;;;;;;4464718;32;20204;-57
2021/08/18 10:39:51;;;;;;;8.30;5.78;;;;;;;;;;4464857;32;20546;-57
2021/08/18 10:42:39;;;;;;;12.57;5.03;;;;;;;;;;4464946;32;20655;-56
2021/08/18 10:45:26;;;;;;;8.90;5.00;;;;;;;;;;4464718;32;20247;-57
2021/08/18 10:47:52;;;;;;;11.57;6.12;;;;;;;;;;4464764;32;20216;-57
2021/08/18 10:50:23;;;;;;;19.67;5.30;;;;;;;;;;4464754;32;20743;-56
2021/08/18 10:52:50;;;;;;;5.97;4.85;;;;;;;;;;4464546;32;20200;-57
2021/08/18 10:55:24;;;;;;;6.80;5.35;;;;;;;;;;4464453;32;20282;-57
2021/08/18 10:57:56;;;;;;;7.82;5.97;;;;;;;;;;4464818;32;20216;-57
2021/08/18 11:00:36;;;;;;;6.15;4.93;;;;;;;;;;4464456;32;20315;-57
2021/08/18 11:03:03;;;;;;;8.88;5.43;;;;;;;;;;4464333;32;20212;-56
2021/08/18 11:05:38;;;;;;;5.95;4.82;;;;;;;;;;4464303;32;20273;-57
2021/08/18 11:08:18;;;;;;;8.05;5.50;;;;;;;;;;4464165;32;20249;-56
2021/08/18 11:10:50;;;;;;;7.05;5.20;;;;;;;;;;4449997;32;20648;-57
2021/08/18 11:13:16;;;;;;;7.32;5.28;;;;;;;;;;4448400;32;20263;-56
2021/08/18 11:15:50;;;;;;;8.20;5.82;;;;;;;;;;4448847;32;20686;-56
2021/08/18 11:18:18;;;;;;;6.93;5.15;;;;;;;;;;4448569;32;20232;-56
2021/08/18 11:20:48;;;;;;;8.07;5.28;;;;;;;;;;4448274;32;20330;-56
2021/08/18 11:23:14;;;;;;;11.32;5.53;;;;;;;;;;4448610;32;20255;-56
2021/08/18 11:25:43;;;;;;;8.20;6.07;;;;;;;;;;4461413;32;20282;-57
2021/08/18 11:28:18;;;;;;;8.93;5.75;;;;;;;;;;4463745;32;20270;-56
2021/08/18 11:31:01;;;;;;;15.90;6.22;;;;;;;;;;4464163;32;20208;-56
2021/08/18 11:33:28;;;;;;;6.07;4.97;;;;;;;;;;4461682;32;20231;-56
2021/08/18 11:35:55;;;;;;;8.23;5.05;;;;;;;;;;4463651;32;20196;-57
2021/08/18 11:38:21;;;;;;;10.23;6.03;;;;;;;;;;4450802;32;20255;-57
2021/08/18 11:40:48;;;;;;;8.88;6.40;;;;;;;;;;4447848;32;20290;-57
2021/08/18 11:43:14;;;;;;;7.95;5.57;;;;;;;;;;4447696;32;20297;-57
2021/08/18 11:45:39;;;;;;;9.00;5.12;;;;;;;;;;4448039;32;20677;-58
2021/08/18 11:48:05;;;;;;;10.55;6.57;;;;;;;;;;4448192;32;20341;-57
2021/08/18 11:50:31;;;;;;;14.68;5.90;;;;;;;;;;4448605;32;20701;-58
2021/08/18 11:53:01;;;;;;;8.43;5.70;;;;;;;;;;4447557;32;20684;-57
2021/08/18 11:55:28;;;;;;;9.30;5.47;;;;;;;;;;4447987;32;20280;-58
2021/08/18 11:58:01;;;;;;;11.50;6.43;;;;;;;;;;4448185;32;20812;-57
2021/08/18 12:00:28;;;;;;;10.13;5.97;;;;;;;;;;4448226;32;20252;-58
2021/08/18 12:02:54;;;;;;;8.15;5.70;;;;;;;;;;4448167;32;20204;-57
2021/08/18 12:05:38;;;;;;;9.50;5.72;;;;;;;;;;4448041;32;20286;-57
2021/08/18 12:08:17;;;;;;;10.55;5.78;;;;;;;;;;4447794;32;20328;-57
2021/08/18 12:10:47;;;;;;;8.73;6.10;;;;;;;;;;4448207;32;20383;-57
2021/08/18 12:13:22;;;;;;;7.50;5.78;;;;;;;;;;4462383;32;20260;-57
2021/08/18 12:15:52;;;;;;;7.78;4.93;;;;;;;;;;4463487;32;20219;-57
2021/08/18 12:18:30;;;;;;;7.90;5.65;;;;;;;;;;4463753;32;20380;-59
2021/08/18 12:21:31;;;;;;;7.62;5.45;;;;;;;;;;4463498;32;20341;-58
2021/08/18 12:23:58;;;;;;;6.47;5.30;;;;;;;;;;4414940;32;20241;-57
2021/08/18 12:26:33;;;;;;;8.20;5.43;;;;;;;;;;4453852;32;20271;-57
2021/08/18 12:29:03;;;;;;;8.60;5.62;;;;;;;;;;4463452;32;20754;-58
2021/08/18 12:31:55;;;;;;;11.20;6.43;;;;;;;;;;4461792;32;20228;-57
2021/08/18 12:34:43;;;;;;;10.00;5.72;;;;;;;;;;4447586;32;20232;-57
2021/08/18 12:37:18;;;;;;;8.35;4.75;;;;;;;;;;4448137;32;20612;-57
2021/08/18 12:40:04;;;;;;;7.18;5.53;;;;;;;;;;4447681;32;20561;-57
2021/08/18 12:42:31;;;;;;;7.00;5.28;;;;;;;;;;4447483;32;20236;-58
2021/08/18 12:45:04;;;;;;;9.23;6.40;;;;;;;;;;4447756;32;20216;-57
2021/08/18 12:47:53;;;;;;;7.55;5.53;;;;;;;;;;4450383;32;20219;-58
2021/08/18 12:50:38;;;;;;;15.80;6.65;;;;;;;;;;4441387;32;20240;-57
2021/08/18 12:53:05;;;;;;;7.35;5.35;;;;;;;;;;4450885;32;20641;-58
2021/08/18 12:55:33;;;;;;;8.07;6.00;;;;;;;;;;4450720;32;20278;-58
2021/08/18 12:57:59;;;;;;;8.65;5.80;;;;;;;;;;4450830;32;20231;-57
2021/08/18 13:00:25;;;;;;;7.18;4.72;;;;;;;;;;4450838;32;20272;-59
2021/08/18 13:02:51;;;;;;;11.70;5.68;;;;;;;;;;4449732;32;20294;-58
2021/08/18 13:05:16;;;;;;;8.98;6.47;;;;;;;;;;4449488;32;20240;-58
2021/08/18 13:07:42;;;;;;;8.80;5.50;;;;;;;;;;4451103;32;20662;-57
2021/08/18 13:10:09;;;;;;;10.73;5.45;;;;;;;;;;4450283;32;20259;-58
2021/08/18 13:12:35;;;;;;;7.85;5.80;;;;;;;;;;4450478;32;20241;-58
2021/08/18 13:15:02;;;;;;;8.23;4.97;;;;;;;;;;4450215;32;20577;-58
2021/08/18 13:17:28;;;;;;;10.52;5.87;;;;;;;;;;4450244;32;20207;-58
2021/08/18 13:19:54;;;;;;;8.93;5.22;;;;;;;;;;4450837;32;20224;-58
2021/08/18 13:22:19;;;;;;;8.65;6.15;;;;;;;;;;4450506;32;20310;-58
2021/08/18 13:24:45;;;;;;;7.47;5.15;;;;;;;;;;4450286;32;20364;-57
2021/08/18 13:27:11;;;;;;;11.35;5.00;;;;;;;;;;4450372;32;20279;-58
2021/08/18 13:29:37;;;;;;;8.00;5.57;;;;;;;;;;4450226;32;20698;-57
2021/08/18 13:32:03;;;;;;;9.07;5.97;;;;;;;;;;4455501;32;20288;-58
2021/08/18 13:34:29;;;;;;;8.25;5.70;;;;;;;;;;4465719;32;20284;-58
2021/08/18 13:36:55;;;;;;;8.30;5.57;;;;;;;;;;4465693;32;20305;-58
2021/08/18 13:39:21;;;;;;;10.30;6.22;;;;;;;;;;4465901;32;20299;-57
2021/08/18 13:41:46;;;;;;;8.52;5.10;;;;;;;;;;4465471;32;20354;-58
2021/08/18 13:44:12;;;;;;;9.02;6.20;;;;;;;;;;4465660;32;20212;-57
2021/08/18 13:46:38;;;;;;;11.40;5.82;;;;;;;;;;4465304;32;20294;-58
2021/08/18 13:49:04;;;;;;;8.05;4.72;;;;;;;;;;4465530;32;20228;-57
2021/08/18 13:51:31;;;;;;;6.87;4.80;;;;;;;;;;4465411;32;20360;-58
2021/08/18 13:53:57;;;;;;;9.63;5.75;;;;;;;;;;4465397;32;20236;-57
2021/08/18 13:56:23;;;;;;;11.18;5.47;;;;;;;;;;4464020;32;20596;-58
2021/08/18 13:58:49;;;;;;;9.60;6.43;;;;;;;;;;4464293;32;20311;-57
2021/08/18 14:01:15;;;;;;;9.57;5.75;;;;;;;;;;4465060;32;20287;-57
2021/08/18 14:03:41;;;;;;;8.35;5.75;;;;;;;;;;4465308;32;20251;-57
2021/08/18 14:06:08;;;;;;;11.85;6.07;;;;;;;;;;4465434;32;20638;-58
2021/08/18 14:08:36;;;;;;;8.07;6.15;;;;;;;;;;4465347;32;20277;-57
2021/08/18 14:11:01;;;;;;;8.10;6.22;;;;;;;;;;4464480;32;20238;-57
2021/08/18 14:13:27;;;;;;;7.95;6.07;;;;;;;;;;4465279;32;20232;-57
2021/08/18 14:15:52;;;;;;;11.07;6.00;;;;;;;;;;4464935;32;20287;-57
2021/08/18 14:18:18;;;;;;;12.37;5.65;;;;;;;;;;4465066;32;20733;-58
2021/08/18 14:20:44;;;;;;;8.88;6.75;;;;;;;;;;4465116;32;20347;-57
2021/08/18 14:23:10;;;;;;;10.57;5.93;;;;;;;;;;4465035;32;20583;-57
2021/08/18 14:25:35;;;;;;;13.85;6.10;;;;;;;;;;4465175;32;20294;-58
2021/08/18 14:28:01;;;;;;;12.63;6.03;;;;;;;;;;4464766;32;20419;-56
2021/08/18 14:30:27;;;;;;;8.25;6.22;;;;;;;;;;4465088;32;20279;-56
2021/08/18 14:32:53;;;;;;;9.48;6.75;;;;;;;;;;4464785;32;20291;-57
2021/08/18 14:35:19;;;;;;;13.62;6.90;;;;;;;;;;4465029;32;20351;-58
2021/08/18 14:37:45;;;;;;;9.07;6.37;;;;;;;;;;4464522;32;20314;-57
2021/08/18 14:40:12;;;;;;;6.90;6.15;;;;;;;;;;4464393;32;20263;-57